createdAt,value
2017-12-17T00:02:08.869Z,85.60
2017-12-17T00:04:36.390Z,85.60
2017-12-17T00:07:04.611Z,85.70
2017-12-17T00:09:32.046Z,85.60
2017-12-17T00:11:59.533Z,85.60
2017-12-17T00:14:26.968Z,85.70
2017-12-17T00:16:54.406Z,85.70
2017-12-17T00:19:22.610Z,85.70
2017-12-17T00:21:50.068Z,85.70
2017-12-17T00:24:17.494Z,86.10
2017-12-17T00:26:44.951Z,86.20
2017-12-17T00:29:13.156Z,86.20
2017-12-17T00:31:40.602Z,86.20
2017-12-17T00:34:08.050Z,86.20
2017-12-17T00:36:35.489Z,86.10
2017-12-17T00:39:03.707Z,85.90
2017-12-17T00:41:31.151Z,85.90
2017-12-17T00:43:58.607Z,85.80
2017-12-17T00:46:26.042Z,85.90
2017-12-17T00:48:53.485Z,85.90
2017-12-17T00:51:21.681Z,86.00
2017-12-17T00:53:49.130Z,85.90
2017-12-17T00:56:16.570Z,85.80
2017-12-17T00:58:44.005Z,85.80
2017-12-17T01:01:11.450Z,86.50
2017-12-17T01:03:38.910Z,85.80
2017-12-17T01:06:06.383Z,86.00
2017-12-17T01:08:33.835Z,86.00
2017-12-17T01:11:01.283Z,86.00
2017-12-17T01:13:28.733Z,86.00
2017-12-17T01:15:56.195Z,86.00
2017-12-17T01:18:23.651Z,86.00
2017-12-17T01:20:51.103Z,85.90
2017-12-17T01:23:18.648Z,85.90
2017-12-17T01:25:46.107Z,85.80
2017-12-17T01:28:13.711Z,85.80
2017-12-17T01:30:41.139Z,85.80
2017-12-17T01:33:08.874Z,85.80
2017-12-17T01:35:36.294Z,85.90
2017-12-17T01:38:05.327Z,86.00
2017-12-17T01:40:32.761Z,86.00
2017-12-17T01:43:00.206Z,86.00
2017-12-17T01:45:28.454Z,85.90
2017-12-17T01:47:55.908Z,85.90
2017-12-17T01:50:23.371Z,85.90
2017-12-17T01:52:50.809Z,85.90
2017-12-17T01:55:18.236Z,85.80
2017-12-17T01:57:45.695Z,85.80
2017-12-17T02:00:13.122Z,85.70
2017-12-17T02:02:41.333Z,85.80
2017-12-17T02:05:08.799Z,85.60
2017-12-17T02:07:36.221Z,85.80
2017-12-17T02:10:04.425Z,85.80
2017-12-17T02:12:31.862Z,85.70
2017-12-17T02:14:59.309Z,85.80
2017-12-17T02:17:26.760Z,85.80
2017-12-17T02:19:54.981Z,85.90
2017-12-17T02:22:22.423Z,85.90
2017-12-17T02:24:49.865Z,85.90
2017-12-17T02:27:17.455Z,85.90
2017-12-17T02:29:44.908Z,85.80
2017-12-17T02:32:12.355Z,85.80
2017-12-17T02:34:39.823Z,85.80
2017-12-17T02:37:07.260Z,85.80
2017-12-17T02:39:34.705Z,85.80
2017-12-17T02:42:02.151Z,85.80
2017-12-17T02:44:30.370Z,85.80
2017-12-17T02:46:57.810Z,85.70
2017-12-17T02:49:25.262Z,85.80
2017-12-17T02:51:52.706Z,85.70
2017-12-17T02:54:20.919Z,85.80
2017-12-17T02:56:48.365Z,85.80
2017-12-17T02:59:15.806Z,85.80
2017-12-17T03:01:43.240Z,85.70
2017-12-17T03:04:11.471Z,85.70
2017-12-17T03:06:38.893Z,85.60
2017-12-17T03:09:06.375Z,85.60
2017-12-17T03:11:33.819Z,85.60
2017-12-17T03:14:01.279Z,85.60
2017-12-17T03:16:28.710Z,85.50
2017-12-17T03:18:56.931Z,85.50
2017-12-17T03:21:24.377Z,85.30
2017-12-17T03:23:51.822Z,85.30
2017-12-17T03:26:19.257Z,85.30
2017-12-17T03:28:47.493Z,85.30
2017-12-17T03:31:14.929Z,85.30
2017-12-17T03:33:42.360Z,85.20
2017-12-17T03:36:09.796Z,85.20
2017-12-17T03:38:37.997Z,85.20
2017-12-17T03:41:05.440Z,85.20
2017-12-17T03:43:32.884Z,85.20
2017-12-17T03:46:01.104Z,85.20
2017-12-17T03:48:29.414Z,85.20
2017-12-17T03:50:56.863Z,85.20
2017-12-17T03:53:24.310Z,85.20
2017-12-17T03:55:51.773Z,85.20
2017-12-17T03:58:19.216Z,85.20
2017-12-17T04:00:46.667Z,85.10
2017-12-17T04:03:14.104Z,85.00
2017-12-17T04:05:41.550Z,85.00
2017-12-17T04:08:08.984Z,85.10
2017-12-17T04:10:37.216Z,85.20
2017-12-17T04:13:04.658Z,85.10
2017-12-17T04:15:32.127Z,85.10
2017-12-17T04:17:59.549Z,85.00
2017-12-17T04:20:27.753Z,85.00
2017-12-17T04:22:55.180Z,85.00
2017-12-17T04:25:22.627Z,85.00
2017-12-17T04:27:50.830Z,85.10
2017-12-17T04:30:18.272Z,85.10
2017-12-17T04:32:45.705Z,85.10
2017-12-17T04:35:13.140Z,85.10
2017-12-17T04:37:40.577Z,85.20
2017-12-17T04:40:08.062Z,85.20
2017-12-17T04:42:35.501Z,85.20
2017-12-17T04:45:02.950Z,85.20
2017-12-17T04:47:30.406Z,85.20
2017-12-17T04:49:57.854Z,85.20
2017-12-17T04:52:25.306Z,85.20
2017-12-17T04:54:52.743Z,85.20
2017-12-17T04:57:20.177Z,85.20
2017-12-17T04:59:48.386Z,85.30
2017-12-17T05:02:15.874Z,85.20
2017-12-17T05:04:43.314Z,85.20
2017-12-17T05:07:10.753Z,85.30
2017-12-17T05:09:38.189Z,85.20
2017-12-17T05:12:06.401Z,85.30
2017-12-17T05:14:33.842Z,85.40
2017-12-17T05:17:01.283Z,85.40
2017-12-17T05:19:28.734Z,85.40
2017-12-17T05:21:56.950Z,85.40
2017-12-17T05:24:24.418Z,85.30
2017-12-17T05:26:51.850Z,85.40
2017-12-17T05:29:19.290Z,85.40
2017-12-17T05:31:46.738Z,85.40
2017-12-17T05:34:14.938Z,85.40
2017-12-17T05:36:42.386Z,85.40
2017-12-17T05:39:09.818Z,85.40
2017-12-17T05:41:38.040Z,85.40
2017-12-17T05:44:05.465Z,85.40
2017-12-17T05:46:32.913Z,85.40
2017-12-17T05:49:01.142Z,85.40
2017-12-17T05:51:29.356Z,85.40
2017-12-17T05:53:56.790Z,85.40
2017-12-17T05:56:24.234Z,85.40
2017-12-17T05:58:51.673Z,85.30
2017-12-17T06:01:19.118Z,85.30
2017-12-17T06:03:46.588Z,85.30
2017-12-17T06:06:14.015Z,85.40
2017-12-17T06:08:41.446Z,85.40
2017-12-17T06:11:08.893Z,85.30
2017-12-17T06:13:36.346Z,85.30
2017-12-17T06:16:03.805Z,85.20
2017-12-17T06:18:31.245Z,85.20
2017-12-17T06:20:58.706Z,85.30
2017-12-17T06:23:26.147Z,85.30
2017-12-17T06:25:53.585Z,85.30
2017-12-17T06:28:21.034Z,85.40
2017-12-17T06:30:48.465Z,85.40
2017-12-17T06:33:15.897Z,85.40
2017-12-17T06:35:44.097Z,85.40
2017-12-17T06:38:12.325Z,85.50
2017-12-17T06:40:40.543Z,85.40
2017-12-17T06:43:07.973Z,85.40
2017-12-17T06:45:35.421Z,85.50
2017-12-17T06:48:02.868Z,85.40
2017-12-17T06:50:30.303Z,85.40
2017-12-17T06:52:57.742Z,85.40
2017-12-17T06:55:25.967Z,85.50
2017-12-17T06:57:53.408Z,85.40
2017-12-17T07:00:20.839Z,85.40
2017-12-17T07:02:48.288Z,85.40
2017-12-17T07:05:16.504Z,86.20
2017-12-17T07:07:43.944Z,85.50
2017-12-17T07:10:11.377Z,85.50
2017-12-17T07:12:38.869Z,85.50
2017-12-17T07:15:06.304Z,86.20
2017-12-17T07:17:33.751Z,85.60
2017-12-17T07:20:01.966Z,85.60
2017-12-17T07:22:29.406Z,85.40
2017-12-17T07:24:56.855Z,85.50
2017-12-17T07:27:24.294Z,85.50
2017-12-17T07:29:52.822Z,85.70
2017-12-17T07:32:20.279Z,85.60
2017-12-17T07:34:47.726Z,85.60
2017-12-17T07:37:15.178Z,85.60
2017-12-17T07:39:42.615Z,85.60
2017-12-17T07:42:10.063Z,85.60
2017-12-17T07:44:37.512Z,85.60
2017-12-17T07:47:05.763Z,85.60
2017-12-17T07:49:33.211Z,85.60
2017-12-17T07:52:00.654Z,85.60
2017-12-17T07:54:28.102Z,85.70
2017-12-17T07:56:55.546Z,85.70
2017-12-17T07:59:23.035Z,85.70
2017-12-17T08:01:50.486Z,85.60
2017-12-17T08:04:17.947Z,85.60
2017-12-17T08:06:45.408Z,85.70
2017-12-17T08:09:12.842Z,85.60
2017-12-17T08:11:40.307Z,85.70
2017-12-17T08:14:07.762Z,85.60
2017-12-17T08:16:35.194Z,85.60
2017-12-17T08:19:02.651Z,85.70
2017-12-17T08:21:30.111Z,85.70
2017-12-17T08:23:57.610Z,85.70
2017-12-17T08:26:25.047Z,85.70
2017-12-17T08:28:52.532Z,85.70
2017-12-17T08:31:19.994Z,85.70
2017-12-17T08:33:47.438Z,85.70
2017-12-17T08:36:14.890Z,85.70
2017-12-17T08:38:42.342Z,85.70
2017-12-17T08:41:09.823Z,85.70
2017-12-17T08:43:37.270Z,85.60
2017-12-17T08:46:04.707Z,85.60
2017-12-17T08:48:32.170Z,85.70
2017-12-17T08:50:59.619Z,85.70
2017-12-17T08:53:27.079Z,85.70
2017-12-17T08:55:54.514Z,85.70
2017-12-17T08:58:21.991Z,85.70
2017-12-17T09:00:49.444Z,85.70
2017-12-17T09:03:16.885Z,85.80
2017-12-17T09:05:44.333Z,85.80
2017-12-17T09:08:11.787Z,85.80
2017-12-17T09:10:39.233Z,85.80
2017-12-17T09:13:07.447Z,85.90
2017-12-17T09:15:34.931Z,85.80
2017-12-17T09:18:02.366Z,85.80
2017-12-17T09:20:29.797Z,85.80
2017-12-17T09:22:57.242Z,85.80
2017-12-17T09:25:24.736Z,85.80
2017-12-17T09:27:52.165Z,85.80
2017-12-17T09:30:19.613Z,85.80
2017-12-17T09:32:47.862Z,85.80
2017-12-17T09:35:15.303Z,85.80
2017-12-17T09:37:42.746Z,85.90
2017-12-17T09:40:10.208Z,85.80
2017-12-17T09:42:37.648Z,85.80
2017-12-17T09:45:05.139Z,85.80
2017-12-17T09:47:32.590Z,85.90
2017-12-17T09:50:00.126Z,85.90
2017-12-17T09:52:27.559Z,85.90
2017-12-17T09:54:55.003Z,85.80
2017-12-17T09:57:22.461Z,85.80
2017-12-17T09:59:50.803Z,85.80
2017-12-17T10:02:18.214Z,85.80
2017-12-17T10:04:45.663Z,85.80
2017-12-17T10:07:13.107Z,85.80
2017-12-17T10:09:41.326Z,85.80
2017-12-17T10:12:08.977Z,85.80
2017-12-17T10:14:36.416Z,85.80
2017-12-17T10:17:03.900Z,85.90
2017-12-17T10:19:31.415Z,85.90
2017-12-17T10:21:58.814Z,85.90
2017-12-17T10:24:26.306Z,85.90
2017-12-17T10:26:53.742Z,85.90
2017-12-17T10:29:21.445Z,85.90
2017-12-17T10:31:49.034Z,85.90
2017-12-17T10:34:16.466Z,85.90
2017-12-17T10:36:43.930Z,85.90
2017-12-17T10:39:11.390Z,85.90
2017-12-17T10:41:39.653Z,85.90
2017-12-17T10:44:07.946Z,86.00
2017-12-17T10:46:35.395Z,85.90
2017-12-17T10:49:03.619Z,86.00
2017-12-17T10:51:31.060Z,86.10
2017-12-17T10:53:58.517Z,86.00
2017-12-17T10:56:25.973Z,85.90
2017-12-17T10:58:53.471Z,86.00
2017-12-17T11:01:20.914Z,86.10
2017-12-17T11:03:48.361Z,86.10
2017-12-17T11:06:15.950Z,86.10
2017-12-17T11:08:44.182Z,86.10
2017-12-17T11:11:11.678Z,86.10
2017-12-17T11:13:39.081Z,86.10
2017-12-17T11:16:06.535Z,86.10
2017-12-17T11:18:33.981Z,86.20
2017-12-17T11:21:02.244Z,86.20
2017-12-17T11:23:30.458Z,86.20
2017-12-17T11:25:57.917Z,86.20
2017-12-17T11:28:25.461Z,86.20
2017-12-17T11:30:52.904Z,86.30
2017-12-17T11:33:20.345Z,86.40
2017-12-17T11:35:48.597Z,86.30
2017-12-17T11:38:16.046Z,86.30
2017-12-17T11:40:43.503Z,86.40
2017-12-17T11:43:10.969Z,86.40
2017-12-17T11:45:38.422Z,86.50
2017-12-17T11:48:05.866Z,86.40
2017-12-17T11:50:33.315Z,86.40
2017-12-17T11:53:00.875Z,86.40
2017-12-17T11:55:28.328Z,86.40
2017-12-17T11:57:55.767Z,86.40
2017-12-17T12:00:23.222Z,86.30
2017-12-17T12:02:50.658Z,86.30
2017-12-17T12:05:18.916Z,86.40
2017-12-17T12:07:46.350Z,86.30
2017-12-17T12:10:13.807Z,86.40
2017-12-17T12:12:41.375Z,86.40
2017-12-17T12:15:08.827Z,86.30
2017-12-17T12:17:36.275Z,86.30
2017-12-17T12:20:03.735Z,86.30
2017-12-17T12:22:31.179Z,86.30
2017-12-17T12:24:58.675Z,86.30
2017-12-17T12:27:26.112Z,86.30
2017-12-17T12:29:53.554Z,86.40
2017-12-17T12:32:21.124Z,86.40
2017-12-17T12:34:48.615Z,86.40
2017-12-17T12:37:16.090Z,87.10
2017-12-17T12:39:44.312Z,86.40
2017-12-17T12:42:11.758Z,86.40
2017-12-17T12:44:39.202Z,86.40
2017-12-17T12:47:06.650Z,86.40
2017-12-17T12:49:34.123Z,86.40
2017-12-17T12:52:01.571Z,86.40
2017-12-17T12:54:29.015Z,86.40
2017-12-17T12:56:56.462Z,86.40
2017-12-17T12:59:24.678Z,86.40
2017-12-17T13:01:52.131Z,86.40
2017-12-17T13:04:19.570Z,86.40
2017-12-17T13:06:47.032Z,86.40
2017-12-17T13:09:14.462Z,86.40
2017-12-17T13:11:42.714Z,86.50
2017-12-17T13:14:10.166Z,86.50
2017-12-17T13:16:37.618Z,86.50
2017-12-17T13:19:05.111Z,86.50
2017-12-17T13:21:33.324Z,86.60
2017-12-17T13:24:00.770Z,86.50
2017-12-17T13:26:28.298Z,86.60
2017-12-17T13:28:56.510Z,87.20
2017-12-17T13:31:23.954Z,86.60
2017-12-17T13:33:51.415Z,86.50
2017-12-17T13:36:18.871Z,86.50
2017-12-17T13:38:46.305Z,86.50
2017-12-17T13:41:14.526Z,86.50
2017-12-17T13:43:41.975Z,86.50
2017-12-17T13:46:09.479Z,86.50
2017-12-17T13:48:36.910Z,86.60
2017-12-17T13:51:04.400Z,86.60
2017-12-17T13:53:31.853Z,86.70
2017-12-17T13:55:59.301Z,86.90
2017-12-17T13:58:26.755Z,86.70
2017-12-17T14:00:54.214Z,86.70
2017-12-17T14:03:21.653Z,86.70
2017-12-17T14:05:49.098Z,86.70
2017-12-17T14:08:16.550Z,86.70
2017-12-17T14:10:43.989Z,86.70
2017-12-17T14:13:11.450Z,86.70
2017-12-17T14:15:38.904Z,86.70
2017-12-17T14:18:10.117Z,86.70
2017-12-17T14:20:37.551Z,86.70
2017-12-17T14:23:05.039Z,86.70
2017-12-17T14:25:33.253Z,87.40
2017-12-17T14:28:00.708Z,86.70
2017-12-17T14:30:28.130Z,86.70
2017-12-17T14:32:56.349Z,86.80
2017-12-17T14:35:23.786Z,86.70
2017-12-17T14:37:51.219Z,86.90
2017-12-17T14:40:20.197Z,86.80
2017-12-17T14:42:47.624Z,86.80
2017-12-17T14:45:15.063Z,86.90
2017-12-17T14:47:42.520Z,86.80
2017-12-17T14:50:10.045Z,86.90
2017-12-17T14:52:38.270Z,86.90
2017-12-17T14:55:06.478Z,86.90
2017-12-17T14:57:34.003Z,86.80
2017-12-17T15:00:01.442Z,86.90
2017-12-17T15:02:28.889Z,86.90
2017-12-17T15:04:56.337Z,86.90
2017-12-17T15:07:23.832Z,86.90
2017-12-17T15:09:52.052Z,86.90
2017-12-17T15:12:20.270Z,86.90
2017-12-17T15:14:47.702Z,86.90
2017-12-17T15:17:15.224Z,86.90
2017-12-17T15:19:42.657Z,86.90
2017-12-17T15:22:10.102Z,86.90
2017-12-17T15:24:37.562Z,86.90
2017-12-17T15:27:05.004Z,86.90
2017-12-17T15:29:32.467Z,86.90
2017-12-17T15:31:59.917Z,86.80
2017-12-17T15:34:27.370Z,87.00
2017-12-17T15:36:54.824Z,86.90
2017-12-17T15:39:22.472Z,87.00
2017-12-17T15:41:50.674Z,86.90
2017-12-17T15:44:18.131Z,86.90
2017-12-17T15:46:45.595Z,86.90
2017-12-17T15:49:13.061Z,86.90
2017-12-17T15:51:40.487Z,86.90
2017-12-17T15:54:07.979Z,86.90
2017-12-17T15:56:36.123Z,86.90
2017-12-17T15:59:03.579Z,86.80
2017-12-17T16:01:31.050Z,86.90
2017-12-17T16:03:58.506Z,86.90
2017-12-17T16:06:25.940Z,86.80
2017-12-17T16:08:53.540Z,86.80
2017-12-17T16:11:20.981Z,86.80
2017-12-17T16:13:48.433Z,86.80
2017-12-17T16:16:15.885Z,86.70
2017-12-17T16:18:43.352Z,86.70
2017-12-17T16:21:10.782Z,86.80
2017-12-17T16:23:38.229Z,86.80
2017-12-17T16:26:06.426Z,86.70
2017-12-17T16:28:33.898Z,86.60
2017-12-17T16:31:01.349Z,86.80
2017-12-17T16:33:28.802Z,86.80
2017-12-17T16:35:56.246Z,86.80
2017-12-17T16:38:23.702Z,86.80
2017-12-17T16:40:51.141Z,86.80
2017-12-17T16:43:19.370Z,86.70
2017-12-17T16:45:46.822Z,86.70
2017-12-17T16:48:14.270Z,86.70
2017-12-17T16:50:41.725Z,86.60
2017-12-17T16:53:09.159Z,86.60
2017-12-17T16:55:36.620Z,86.60
2017-12-17T16:58:04.054Z,86.60
2017-12-17T17:00:32.270Z,86.90
2017-12-17T17:02:59.702Z,86.70
2017-12-17T17:05:27.147Z,86.70
2017-12-17T17:07:55.354Z,86.80
2017-12-17T17:10:22.798Z,86.70
2017-12-17T17:12:50.225Z,86.60
2017-12-17T17:15:17.681Z,86.60
2017-12-17T17:17:45.122Z,86.60
2017-12-17T17:20:12.570Z,86.60
2017-12-17T17:22:40.005Z,86.60
2017-12-17T17:25:07.495Z,86.70
2017-12-17T17:27:34.901Z,86.70
2017-12-17T17:30:02.351Z,86.80
2017-12-17T17:32:29.798Z,86.80
2017-12-17T17:34:58.053Z,86.80
2017-12-17T17:37:25.491Z,86.80
2017-12-17T17:39:52.938Z,86.80
2017-12-17T17:42:20.384Z,86.70
2017-12-17T17:44:47.837Z,86.80
2017-12-17T17:47:15.269Z,86.80
2017-12-17T17:49:42.728Z,86.80
2017-12-17T17:52:10.206Z,86.80
2017-12-17T17:54:37.678Z,86.60
2017-12-17T17:57:05.122Z,86.60
2017-12-17T17:59:32.635Z,86.60
2017-12-17T18:02:00.015Z,86.60
2017-12-17T18:04:27.457Z,86.60
2017-12-17T18:06:55.667Z,86.60
2017-12-17T18:09:23.111Z,86.60
2017-12-17T18:11:50.564Z,86.60
2017-12-17T18:14:17.997Z,86.60
2017-12-17T18:16:46.219Z,86.60
2017-12-17T18:19:13.688Z,86.60
2017-12-17T18:21:41.140Z,86.60
2017-12-17T18:24:08.581Z,86.60
2017-12-17T18:26:36.043Z,86.60
2017-12-17T18:29:03.488Z,86.70
2017-12-17T18:31:30.946Z,86.60
2017-12-17T18:33:58.381Z,86.60
2017-12-17T18:36:26.601Z,86.50
2017-12-17T18:38:54.046Z,86.50
2017-12-17T18:41:21.490Z,86.50
2017-12-17T18:43:48.970Z,86.60
2017-12-17T18:46:16.417Z,86.50
2017-12-17T18:48:43.850Z,86.60
2017-12-17T18:51:11.294Z,86.60
2017-12-17T18:53:39.494Z,86.50
2017-12-17T18:56:06.942Z,86.50
2017-12-17T18:58:34.378Z,86.50
2017-12-17T19:01:02.595Z,86.50
2017-12-17T19:03:30.056Z,86.50
2017-12-17T19:05:57.478Z,86.40
2017-12-17T19:08:24.915Z,86.50
2017-12-17T19:10:52.357Z,86.40
2017-12-17T19:13:19.802Z,86.30
2017-12-17T19:15:47.246Z,86.30
2017-12-17T19:18:14.695Z,86.00
2017-12-17T19:20:42.133Z,86.10
2017-12-17T19:23:09.581Z,85.90
2017-12-17T19:25:37.790Z,85.30
2017-12-17T19:28:05.218Z,85.30
2017-12-17T19:30:32.650Z,85.20
2017-12-17T19:33:00.869Z,85.10
2017-12-17T19:35:28.306Z,85.10
2017-12-17T19:37:55.755Z,84.70
2017-12-17T19:40:23.205Z,84.80
2017-12-17T19:42:51.426Z,84.50
2017-12-17T19:45:18.869Z,84.50
2017-12-17T19:47:46.320Z,84.40
2017-12-17T19:50:13.773Z,84.10
2017-12-17T19:52:41.965Z,83.70
2017-12-17T19:55:09.396Z,83.70
2017-12-17T19:57:36.863Z,83.70
2017-12-17T20:00:04.316Z,83.60
2017-12-17T20:02:31.750Z,83.70
2017-12-17T20:04:59.964Z,83.80
2017-12-17T20:07:27.435Z,83.70
2017-12-17T20:09:54.846Z,83.10
2017-12-17T20:12:22.319Z,83.00
2017-12-17T20:14:49.747Z,83.50
2017-12-17T20:17:17.954Z,84.00
2017-12-17T20:19:45.378Z,83.90
2017-12-17T20:22:13.620Z,84.10
2017-12-17T20:24:41.075Z,84.10
2017-12-17T20:27:08.518Z,84.00
2017-12-17T20:29:35.960Z,84.00
2017-12-17T20:32:03.384Z,83.10
2017-12-17T20:34:31.571Z,83.40
2017-12-17T20:36:59.791Z,83.70
2017-12-17T20:39:27.228Z,83.70
2017-12-17T20:41:54.683Z,83.70
2017-12-17T20:44:22.122Z,83.10
2017-12-17T20:46:49.593Z,83.10
2017-12-17T20:49:17.035Z,83.70
2017-12-17T20:51:44.517Z,82.80
2017-12-17T20:54:11.964Z,83.10
2017-12-17T20:56:39.389Z,83.40
2017-12-17T20:59:07.588Z,83.50
2017-12-17T21:01:35.015Z,83.50
2017-12-17T21:04:03.226Z,83.50
2017-12-17T21:06:30.656Z,83.40
2017-12-17T21:08:58.871Z,83.50
2017-12-17T21:11:26.325Z,83.50
2017-12-17T21:13:53.769Z,83.60
2017-12-17T21:16:21.192Z,83.60
2017-12-17T21:18:49.435Z,82.90
2017-12-17T21:21:16.821Z,83.40
2017-12-17T21:23:45.024Z,83.70
2017-12-17T21:26:12.457Z,83.60
2017-12-17T21:28:40.697Z,83.70
2017-12-17T21:31:08.131Z,83.70
2017-12-17T21:33:35.549Z,83.70
2017-12-17T21:36:03.775Z,83.70
2017-12-17T21:38:31.201Z,83.70
2017-12-17T21:40:58.647Z,83.70
2017-12-17T21:43:26.835Z,83.70
2017-12-17T21:45:54.292Z,83.70
2017-12-17T21:48:21.717Z,83.70
2017-12-17T21:50:49.963Z,83.90
2017-12-17T21:53:17.434Z,83.80
2017-12-17T21:55:44.881Z,83.80
2017-12-17T21:58:12.325Z,83.70
2017-12-17T22:00:39.775Z,83.80
2017-12-17T22:03:07.234Z,83.80
2017-12-17T22:05:34.697Z,83.80
2017-12-17T22:08:02.150Z,83.80
2017-12-17T22:10:29.606Z,83.90
2017-12-17T22:12:57.085Z,83.90
2017-12-17T22:15:24.593Z,83.90
2017-12-17T22:17:52.781Z,84.10
2017-12-17T22:20:20.244Z,83.90
2017-12-17T22:22:47.661Z,84.10
2017-12-17T22:25:15.880Z,84.10
2017-12-17T22:27:43.311Z,84.10
2017-12-17T22:30:10.808Z,84.00
2017-12-17T22:32:38.286Z,84.00
2017-12-17T22:35:05.730Z,83.90
2017-12-17T22:37:33.165Z,83.90
2017-12-17T22:40:00.581Z,83.90
2017-12-17T22:42:28.780Z,84.00
2017-12-17T22:44:56.209Z,84.00
2017-12-17T22:47:24.413Z,84.00
2017-12-17T22:49:51.838Z,84.00
2017-12-17T22:52:20.107Z,84.10
2017-12-17T22:54:47.548Z,84.00
2017-12-17T22:57:14.988Z,84.00
2017-12-17T22:59:42.447Z,84.00
2017-12-17T23:02:09.885Z,84.00
2017-12-17T23:04:37.333Z,84.00
2017-12-17T23:07:04.766Z,84.00
2017-12-17T23:09:33.003Z,84.00
2017-12-17T23:12:00.443Z,84.00
2017-12-17T23:14:27.890Z,84.10
2017-12-17T23:16:55.338Z,84.10
2017-12-17T23:19:22.782Z,84.10
2017-12-17T23:21:50.218Z,84.10
2017-12-17T23:24:17.654Z,84.10
2017-12-17T23:26:45.253Z,84.00
2017-12-17T23:29:13.437Z,83.90
2017-12-17T23:31:40.886Z,83.90
2017-12-17T23:34:08.335Z,83.90
2017-12-17T23:36:36.541Z,83.90
2017-12-17T23:39:04.002Z,84.00
2017-12-17T23:41:31.460Z,83.90
2017-12-17T23:43:58.932Z,83.90
2017-12-17T23:46:26.370Z,83.50
2017-12-17T23:48:53.805Z,83.60
2017-12-17T23:51:22.005Z,83.50
2017-12-17T23:53:49.446Z,83.50
2017-12-17T23:56:16.895Z,83.50
2017-12-17T23:58:44.336Z,83.50
